Time;durP1;ratioP1;P1;durP2;ratioP2;P2;SDS_P1;SDS_P2;PMS_P1;PMS_P2;Temp;Humidity;BMP_temperature;BMP_pressure;BME280_temperature;BME280_humidity;BME280_pressure;Samples;Min_cycle;Max_cycle;Signal;HPM_P1;HPM_P2
2023/11/14 00:00:45;;;;;;;37.55;6.15;;;12.00;99.90;;;;;;5134697;27;20114;-47
2023/11/14 00:03:11;;;;;;;33.22;6.85;;;12.00;99.90;;;;;;5134456;27;20046;-45
2023/11/14 00:05:37;;;;;;;28.90;5.57;;;12.10;99.90;;;;;;5134715;27;20035;-44
2023/11/14 00:08:04;;;;;;;31.70;5.70;;;12.00;99.90;;;;;;5134515;27;20085;-43
2023/11/14 00:10:29;;;;;;;33.55;6.47;;;12.10;99.90;;;;;;5133963;27;20091;-48
2023/11/14 00:12:56;;;;;;;38.45;5.65;;;12.00;99.90;;;;;;5134206;27;20042;-47
2023/11/14 00:15:22;;;;;;;30.85;5.60;;;12.00;99.90;;;;;;5134714;27;20043;-45
2023/11/14 00:17:49;;;;;;;32.33;5.88;;;12.00;99.90;;;;;;5123682;27;20031;-45
2023/11/14 00:20:15;;;;;;;31.92;6.10;;;12.00;99.90;;;;;;5130657;27;20039;-43
2023/11/14 00:22:41;;;;;;;38.05;7.63;;;12.00;99.90;;;;;;5134476;27;20031;-45
2023/11/14 00:25:07;;;;;;;35.42;6.97;;;12.00;99.90;;;;;;5134208;27;20038;-45
2023/11/14 00:27:33;;;;;;;30.35;5.97;;;12.00;99.90;;;;;;5134064;27;20038;-42
2023/11/14 00:29:59;;;;;;;28.52;5.88;;;12.00;99.90;;;;;;5134338;27;20035;-43
2023/11/14 00:32:24;;;;;;;29.67;5.72;;;12.00;99.90;;;;;;5115793;27;20110;-44
2023/11/14 00:34:50;;;;;;;35.47;5.82;;;12.00;99.90;;;;;;5134296;27;20037;-43
2023/11/14 00:37:17;;;;;;;38.80;6.35;;;12.10;99.90;;;;;;5133977;27;20128;-42
2023/11/14 00:39:43;;;;;;;35.22;7.07;;;12.10;99.90;;;;;;5134015;27;20045;-46
2023/11/14 00:42:09;;;;;;;33.28;5.82;;;12.20;99.90;;;;;;5133834;27;20043;-46
2023/11/14 00:44:35;;;;;;;34.65;5.55;;;12.20;99.90;;;;;;5134172;27;20472;-47
2023/11/14 00:47:01;;;;;;;25.88;5.18;;;12.20;99.90;;;;;;5134006;27;20472;-46
2023/11/14 00:49:27;;;;;;;30.55;6.20;;;12.30;99.90;;;;;;5133686;27;20030;-48
2023/11/14 00:51:53;;;;;;;39.67;6.43;;;12.30;99.90;;;;;;5133840;27;20476;-45
2023/11/14 00:54:19;;;;;;;40.08;5.78;;;12.30;99.90;;;;;;5115256;27;20095;-44
2023/11/14 00:56:44;;;;;;;32.90;4.95;;;12.40;99.90;;;;;;5133490;27;20043;-45
2023/11/14 00:59:10;;;;;;;35.90;6.90;;;12.20;99.90;;;;;;5115016;27;20076;-44
2023/11/14 01:01:36;;;;;;;32.65;5.55;;;12.20;99.90;;;;;;5133654;27;20118;-44
2023/11/14 01:04:02;;;;;;;35.13;5.72;;;12.20;99.90;;;;;;5133418;27;20049;-43
2023/11/14 01:06:28;;;;;;;35.35;6.38;;;12.30;99.90;;;;;;5133304;27;20507;-46
2023/11/14 01:08:55;;;;;;;32.47;5.88;;;12.30;99.90;;;;;;5133392;27;20031;-43
2023/11/14 01:11:21;;;;;;;28.27;5.82;;;12.30;99.90;;;;;;5133085;27;20042;-48
2023/11/14 01:13:46;;;;;;;30.60;5.53;;;12.40;99.90;;;;;;5133399;27;20035;-45
2023/11/14 01:16:15;;;;;;;28.33;5.43;;;12.40;99.90;;;;;;5133227;27;20030;-46
2023/11/14 01:18:42;;;;;;;25.83;5.32;;;12.40;99.90;;;;;;5118822;27;20047;-43
2023/11/14 01:21:13;;;;;;;24.83;5.10;;;12.40;99.90;;;;;;5132341;27;20031;-45
2023/11/14 01:23:39;;;;;;;38.28;5.00;;;12.40;99.90;;;;;;5132796;27;20045;-46
2023/11/14 01:26:05;;;;;;;26.48;5.07;;;12.40;99.90;;;;;;5133351;27;20061;-44
2023/11/14 01:28:31;;;;;;;33.92;6.55;;;12.40;99.90;;;;;;5132907;27;20106;-44
2023/11/14 01:30:56;;;;;;;30.80;5.82;;;12.40;99.90;;;;;;5133164;27;20041;-43
2023/11/14 01:33:22;;;;;;;32.47;7.10;;;12.30;99.90;;;;;;5132876;27;20111;-42
2023/11/14 01:35:47;;;;;;;23.45;4.93;;;12.40;99.90;;;;;;5132716;27;20041;-47
2023/11/14 01:38:13;;;;;;;25.88;5.70;;;12.30;99.90;;;;;;5132946;27;20031;-46
2023/11/14 01:40:50;;;;;;;35.65;7.13;;;12.30;99.90;;;;;;5132627;27;20103;-45
2023/11/14 01:43:16;;;;;;;22.35;4.60;;;12.30;99.90;;;;;;5132770;27;20059;-44
2023/11/14 01:45:42;;;;;;;32.03;5.30;;;12.30;99.90;;;;;;5132662;27;20396;-47
2023/11/14 01:48:08;;;;;;;28.80;6.05;;;12.30;99.90;;;;;;5132856;27;20035;-44
2023/11/14 01:50:33;;;;;;;28.77;5.43;;;12.20;99.90;;;;;;5132809;27;20081;-47
2023/11/14 01:53:00;;;;;;;29.70;5.68;;;12.20;99.90;;;;;;5132656;27;20084;-47
2023/11/14 01:55:27;;;;;;;27.25;4.75;;;12.20;99.90;;;;;;5132894;27;20039;-45
2023/11/14 01:57:54;;;;;;;27.88;5.55;;;12.30;99.90;;;;;;5132761;27;20031;-45
2023/11/14 02:00:20;;;;;;;28.95;6.38;;;12.20;99.90;;;;;;5132641;27;20071;-44
2023/11/14 02:02:47;;;;;;;35.65;6.45;;;12.20;99.90;;;;;;5132570;27;20046;-44
2023/11/14 02:05:17;;;;;;;27.10;5.70;;;12.10;99.90;;;;;;5132469;28;20047;-45
2023/11/14 02:07:43;;;;;;;29.92;6.07;;;12.10;99.90;;;;;;5132268;28;20374;-45
2023/11/14 02:10:10;;;;;;;29.50;5.13;;;12.10;99.90;;;;;;5132809;28;20154;-45
2023/11/14 02:12:36;;;;;;;29.67;5.30;;;12.10;99.90;;;;;;5132716;28;20043;-42
2023/11/14 02:15:05;;;;;;;25.90;4.88;;;12.10;99.90;;;;;;5132527;28;20099;-43
2023/11/14 02:17:34;;;;;;;37.35;6.75;;;12.00;99.90;;;;;;5124319;28;20451;-46
2023/11/14 02:19:59;;;;;;;24.85;5.35;;;12.00;99.90;;;;;;5126398;28;20473;-42
2023/11/14 02:22:26;;;;;;;26.98;5.50;;;12.00;99.90;;;;;;5132414;28;20042;-42
2023/11/14 02:24:53;;;;;;;32.00;5.93;;;12.10;99.90;;;;;;5132749;28;20043;-43
2023/11/14 02:27:19;;;;;;;28.55;5.50;;;12.00;99.90;;;;;;5132627;28;20031;-43
2023/11/14 02:29:46;;;;;;;33.42;6.10;;;12.00;99.90;;;;;;5113852;28;20524;-42
2023/11/14 02:32:12;;;;;;;37.75;5.57;;;12.10;99.90;;;;;;5133594;27;20401;-48
2023/11/14 02:34:37;;;;;;;31.88;6.28;;;12.00;99.90;;;;;;5136419;27;20034;-45
2023/11/14 02:37:03;;;;;;;26.27;5.35;;;12.00;99.90;;;;;;5136464;27;20500;-47
2023/11/14 02:39:30;;;;;;;26.92;5.75;;;11.90;99.90;;;;;;5118217;27;20487;-45
2023/11/14 02:41:57;;;;;;;33.97;6.00;;;11.90;99.90;;;;;;5117740;27;20408;-47
2023/11/14 02:44:22;;;;;;;27.73;5.38;;;11.90;99.90;;;;;;5136014;27;20081;-44
2023/11/14 02:46:48;;;;;;;29.00;6.32;;;11.90;99.90;;;;;;5117761;27;20071;-49
2023/11/14 02:49:16;;;;;;;24.80;4.50;;;11.90;99.90;;;;;;5135860;27;20034;-44
2023/11/14 02:51:42;;;;;;;28.58;4.97;;;11.90;99.90;;;;;;5136307;27;20034;-45
2023/11/14 02:54:08;;;;;;;27.90;5.60;;;11.90;99.90;;;;;;5136144;27;20042;-46
2023/11/14 02:56:34;;;;;;;27.90;5.65;;;12.00;99.90;;;;;;5136056;27;20046;-48
2023/11/14 02:59:00;;;;;;;33.08;5.72;;;12.00;99.90;;;;;;5136189;27;20043;-50
2023/11/14 03:01:26;;;;;;;30.73;5.53;;;12.00;99.90;;;;;;5136076;27;20082;-47
2023/11/14 03:03:52;;;;;;;28.95;5.10;;;12.00;99.90;;;;;;5135896;27;20047;-44
2023/11/14 03:06:18;;;;;;;31.45;5.70;;;12.00;99.90;;;;;;5135736;27;20041;-43
2023/11/14 03:08:43;;;;;;;32.92;6.93;;;12.00;99.90;;;;;;5135865;27;20042;-47
2023/11/14 03:11:09;;;;;;;27.90;5.05;;;12.00;99.90;;;;;;5135591;27;20088;-49
2023/11/14 03:13:35;;;;;;;24.88;5.13;;;11.90;99.90;;;;;;5136211;27;20218;-47
2023/11/14 03:16:02;;;;;;;32.53;6.22;;;11.90;99.90;;;;;;5135520;27;20043;-47
2023/11/14 03:18:28;;;;;;;34.80;6.28;;;12.00;99.90;;;;;;5120923;27;20040;-43
2023/11/14 03:20:53;;;;;;;36.25;5.97;;;11.90;99.90;;;;;;5135825;27;20096;-42
2023/11/14 03:23:19;;;;;;;28.05;6.03;;;11.90;99.90;;;;;;5135566;27;20108;-42
2023/11/14 03:25:45;;;;;;;28.77;5.15;;;11.90;99.90;;;;;;5135626;27;20105;-43
2023/11/14 03:28:10;;;;;;;28.65;5.82;;;11.90;99.90;;;;;;5135469;27;20039;-46
2023/11/14 03:30:36;;;;;;;23.83;6.05;;;11.90;99.90;;;;;;5135220;27;20358;-45
2023/11/14 03:33:02;;;;;;;30.33;5.38;;;12.00;99.90;;;;;;5135394;27;20027;-44
2023/11/14 03:35:28;;;;;;;33.78;5.97;;;12.00;99.90;;;;;;5135356;27;20051;-46
2023/11/14 03:37:54;;;;;;;30.58;6.03;;;12.00;99.90;;;;;;5135300;27;20107;-45
2023/11/14 03:40:19;;;;;;;31.25;6.50;;;12.10;99.90;;;;;;5135326;27;20066;-46
2023/11/14 03:42:45;;;;;;;32.97;6.38;;;11.90;99.90;;;;;;5116468;27;20580;-48
2023/11/14 03:45:11;;;;;;;22.42;4.88;;;11.90;99.90;;;;;;5127259;27;20811;-47
2023/11/14 03:47:36;;;;;;;29.58;5.78;;;12.00;99.90;;;;;;5114631;28;20367;-44
2023/11/14 03:50:03;;;;;;;37.72;6.63;;;11.90;99.90;;;;;;5118290;27;20057;-46
2023/11/14 03:52:29;;;;;;;35.28;6.95;;;11.80;99.90;;;;;;5134001;27;20036;-43
2023/11/14 03:54:55;;;;;;;27.95;5.28;;;11.90;99.90;;;;;;5102156;27;20049;-42
2023/11/14 03:57:21;;;;;;;32.50;5.60;;;11.80;99.90;;;;;;5134982;27;20046;-43
2023/11/14 03:59:47;;;;;;;41.15;6.00;;;11.80;99.90;;;;;;5134602;27;20116;-44
2023/11/14 04:02:13;;;;;;;29.67;5.28;;;11.70;99.90;;;;;;5126694;27;20046;-44
2023/11/14 04:04:39;;;;;;;38.08;6.80;;;11.70;99.90;;;;;;5128236;27;20427;-44
2023/11/14 04:07:05;;;;;;;40.42;6.75;;;11.70;99.90;;;;;;5134539;27;20058;-43
2023/11/14 04:09:31;;;;;;;32.28;5.72;;;11.70;99.90;;;;;;5134780;27;20039;-44
2023/11/14 04:11:57;;;;;;;33.05;6.00;;;11.70;99.90;;;;;;5134374;27;20107;-43
2023/11/14 04:14:24;;;;;;;41.13;6.57;;;11.80;99.90;;;;;;5134597;27;20037;-47
2023/11/14 04:16:50;;;;;;;31.17;6.10;;;11.70;99.90;;;;;;5134425;27;20079;-43
2023/11/14 04:19:15;;;;;;;37.67;7.15;;;11.70;99.90;;;;;;5126814;27;20079;-44
2023/11/14 04:21:41;;;;;;;34.30;6.22;;;11.80;99.90;;;;;;5127611;27;20474;-42
2023/11/14 04:24:08;;;;;;;29.58;6.05;;;11.80;99.90;;;;;;5134150;27;20124;-46
2023/11/14 04:26:34;;;;;;;33.15;6.10;;;11.80;99.90;;;;;;5134422;27;20095;-47
2023/11/14 04:29:00;;;;;;;29.45;6.18;;;11.80;99.90;;;;;;5134184;27;20023;-45
2023/11/14 04:31:26;;;;;;;40.90;6.63;;;11.90;99.90;;;;;;5134564;27;20075;-48
2023/11/14 04:33:52;;;;;;;36.30;6.53;;;11.90;99.90;;;;;;5133834;27;20071;-48
2023/11/14 04:36:19;;;;;;;41.55;6.75;;;11.90;99.90;;;;;;5134339;27;20046;-48
2023/11/14 04:38:45;;;;;;;43.03;7.85;;;11.90;99.90;;;;;;5115969;27;20054;-44
2023/11/14 04:41:15;;;;;;;34.85;6.57;;;11.80;99.90;;;;;;5119955;27;20042;-49
2023/11/14 04:43:42;;;;;;;37.03;7.05;;;11.90;99.90;;;;;;5133715;27;20051;-49
2023/11/14 04:46:07;;;;;;;38.70;6.35;;;11.80;99.90;;;;;;5133768;27;20037;-48
2023/11/14 04:48:33;;;;;;;41.42;7.68;;;11.80;99.90;;;;;;5133841;27;20039;-43
2023/11/14 04:50:59;;;;;;;38.17;6.95;;;11.80;99.90;;;;;;5134056;27;20352;-45
2023/11/14 04:53:24;;;;;;;35.95;5.97;;;11.80;99.90;;;;;;5125928;27;20059;-48
2023/11/14 04:55:50;;;;;;;45.53;7.10;;;11.80;99.90;;;;;;5127051;27;20083;-44
2023/11/14 04:58:16;;;;;;;32.72;6.47;;;11.80;99.90;;;;;;5133963;27;20354;-48
2023/11/14 05:00:42;;;;;;;36.78;6.75;;;11.90;99.90;;;;;;5133496;27;20035;-49
2023/11/14 05:03:08;;;;;;;36.67;6.53;;;11.90;99.90;;;;;;5133253;27;20031;-47
2023/11/14 05:05:34;;;;;;;35.65;6.47;;;11.90;99.90;;;;;;5133846;27;20165;-45
2023/11/14 05:08:00;;;;;;;37.58;6.55;;;11.90;99.90;;;;;;5133459;27;20035;-45
2023/11/14 05:10:26;;;;;;;33.45;6.95;;;11.90;99.90;;;;;;5133649;27;20042;-49
2023/11/14 05:12:52;;;;;;;33.92;6.05;;;11.90;99.90;;;;;;5133331;27;20035;-43
2023/11/14 05:15:17;;;;;;;35.28;6.65;;;11.80;99.90;;;;;;5133263;27;20100;-44
2023/11/14 05:17:43;;;;;;;33.63;6.30;;;11.90;99.90;;;;;;5133454;27;20070;-44
2023/11/14 05:20:10;;;;;;;41.17;7.45;;;11.90;99.90;;;;;;5133351;27;20084;-44
2023/11/14 05:22:37;;;;;;;32.75;6.18;;;11.90;99.90;;;;;;5133113;27;20085;-45
2023/11/14 05:25:03;;;;;;;36.97;6.70;;;11.80;99.90;;;;;;5132958;27;20039;-44
2023/11/14 05:27:29;;;;;;;51.08;7.45;;;11.90;99.90;;;;;;5133533;27;20453;-45
2023/11/14 05:29:55;;;;;;;37.65;7.47;;;11.80;99.90;;;;;;5133042;27;20126;-44
2023/11/14 05:32:21;;;;;;;36.45;6.93;;;11.70;99.90;;;;;;5133295;27;20050;-46
2023/11/14 05:34:47;;;;;;;34.08;6.75;;;11.70;99.90;;;;;;5133048;27;20035;-43
2023/11/14 05:37:13;;;;;;;40.97;7.18;;;11.70;99.90;;;;;;5132937;27;20092;-45
2023/11/14 05:39:38;;;;;;;38.70;7.15;;;11.70;99.90;;;;;;5114741;27;20389;-47
2023/11/14 05:42:05;;;;;;;26.65;6.45;;;11.70;99.90;;;;;;5132866;27;20086;-45
2023/11/14 05:44:31;;;;;;;35.80;6.63;;;11.70;99.90;;;;;;5133138;27;20100;-45
2023/11/14 05:46:57;;;;;;;39.90;6.25;;;11.70;99.90;;;;;;5132528;27;20042;-45
2023/11/14 05:49:22;;;;;;;31.20;5.93;;;11.70;99.90;;;;;;5132988;27;20114;-43
2023/11/14 05:51:48;;;;;;;31.67;6.38;;;11.70;99.90;;;;;;5132777;27;20047;-43
2023/11/14 05:54:14;;;;;;;31.40;6.25;;;11.70;99.90;;;;;;5119657;27;20043;-43
2023/11/14 05:56:39;;;;;;;39.55;6.65;;;11.60;99.90;;;;;;5114313;28;20088;-44
2023/11/14 05:59:07;;;;;;;43.70;8.25;;;11.60;99.90;;;;;;5132622;27;20046;-44
2023/11/14 06:01:33;;;;;;;36.72;5.68;;;11.70;99.90;;;;;;5114233;27;20046;-42
2023/11/14 06:03:58;;;;;;;55.15;8.30;;;11.70;99.90;;;;;;5132628;27;20027;-44
2023/11/14 06:06:24;;;;;;;48.42;8.85;;;11.60;99.90;;;;;;5132174;27;20118;-42
2023/11/14 06:08:50;;;;;;;34.72;7.00;;;11.50;99.90;;;;;;5132407;28;20031;-42
2023/11/14 06:11:15;;;;;;;43.20;7.57;;;11.60;99.90;;;;;;5132392;28;20070;-43
2023/11/14 06:13:43;;;;;;;62.67;8.38;;;11.60;99.90;;;;;;5132727;28;20472;-42
2023/11/14 06:16:08;;;;;;;44.63;7.80;;;11.50;99.90;;;;;;5132839;28;20035;-43
2023/11/14 06:18:34;;;;;;;49.88;7.55;;;11.50;99.90;;;;;;5132412;28;20039;-45
2023/11/14 06:21:00;;;;;;;45.35;6.97;;;11.60;99.90;;;;;;5132518;27;20481;-44
2023/11/14 06:23:26;;;;;;;49.67;8.27;;;11.60;99.90;;;;;;5132188;28;20047;-48
2023/11/14 06:25:53;;;;;;;49.83;7.72;;;11.50;99.90;;;;;;5132272;27;20557;-48
2023/11/14 06:28:19;;;;;;;42.30;6.57;;;11.50;99.90;;;;;;5132639;28;20388;-47
2023/11/14 06:30:45;;;;;;;41.30;7.65;;;11.60;99.90;;;;;;5132528;27;20513;-43
2023/11/14 06:33:11;;;;;;;47.35;6.95;;;11.70;99.90;;;;;;5132535;28;20082;-48
2023/11/14 06:35:37;;;;;;;37.20;6.68;;;11.70;99.90;;;;;;5132379;28;20027;-46
2023/11/14 06:38:04;;;;;;;43.80;6.63;;;11.70;99.90;;;;;;5132417;28;20027;-42
2023/11/14 06:40:29;;;;;;;44.33;7.70;;;11.70;99.90;;;;;;5131959;28;20019;-46
2023/11/14 06:42:55;;;;;;;38.05;7.20;;;11.60;99.90;;;;;;5132308;28;20493;-46
2023/11/14 06:45:21;;;;;;;37.03;6.47;;;11.60;99.90;;;;;;5132030;28;20468;-47
2023/11/14 06:47:47;;;;;;;47.10;8.07;;;11.60;99.90;;;;;;5113761;28;20118;-46
2023/11/14 06:50:14;;;;;;;44.22;7.05;;;11.70;99.90;;;;;;5132153;28;20110;-43
2023/11/14 06:52:40;;;;;;;43.95;7.72;;;11.60;99.90;;;;;;5130444;28;20414;-44
2023/11/14 06:55:06;;;;;;;44.15;8.88;;;11.70;99.90;;;;;;5119207;28;20123;-43
2023/11/14 06:57:32;;;;;;;30.40;6.10;;;11.70;99.90;;;;;;5132217;28;20035;-45
2023/11/14 07:00:00;;;;;;;38.08;6.97;;;11.70;99.90;;;;;;5132306;28;20446;-49
2023/11/14 07:02:25;;;;;;;32.67;5.60;;;11.70;99.90;;;;;;5132140;28;20223;-43
2023/11/14 07:04:51;;;;;;;41.58;8.32;;;11.70;99.90;;;;;;5132194;28;20123;-43
2023/11/14 07:07:16;;;;;;;38.95;6.82;;;11.70;99.90;;;;;;5132341;28;20035;-43
2023/11/14 07:09:43;;;;;;;37.38;7.70;;;11.70;99.90;;;;;;5131720;28;20160;-43
2023/11/14 07:12:10;;;;;;;39.20;7.32;;;11.60;99.90;;;;;;5132200;28;20386;-42
2023/11/14 07:14:36;;;;;;;45.72;7.72;;;11.70;99.90;;;;;;5131982;28;20050;-44
2023/11/14 07:17:01;;;;;;;45.63;6.65;;;11.60;99.90;;;;;;5132128;28;20034;-43
2023/11/14 07:19:27;;;;;;;38.65;7.30;;;11.60;99.90;;;;;;5133501;27;20031;-46
2023/11/14 07:21:55;;;;;;;61.08;7.80;;;11.60;99.90;;;;;;5135548;27;20477;-46
2023/11/14 07:24:21;;;;;;;44.80;7.97;;;11.60;99.90;;;;;;5135482;27;20054;-48
2023/11/14 07:26:49;;;;;;;36.90;7.38;;;11.60;99.90;;;;;;5135205;27;20518;-44
2023/11/14 07:29:15;;;;;;;42.35;7.35;;;11.70;99.90;;;;;;5135370;27;20035;-43
2023/11/14 07:31:42;;;;;;;48.55;6.88;;;11.60;99.90;;;;;;5135523;27;20037;-45
2023/11/14 07:34:07;;;;;;;38.22;6.65;;;11.60;99.90;;;;;;5117024;27;20047;-47
2023/11/14 07:36:33;;;;;;;33.67;6.63;;;11.60;99.90;;;;;;5135308;27;20051;-44
2023/11/14 07:38:59;;;;;;;41.67;6.63;;;11.70;99.90;;;;;;5135535;27;20049;-43
2023/11/14 07:41:25;;;;;;;38.58;6.40;;;11.70;99.90;;;;;;5116845;27;20380;-44
2023/11/14 07:43:51;;;;;;;47.08;7.55;;;11.70;99.90;;;;;;5134792;27;20055;-44
2023/11/14 07:46:17;;;;;;;35.53;6.93;;;11.70;99.90;;;;;;5135303;27;20088;-42
2023/11/14 07:48:43;;;;;;;40.88;6.45;;;11.70;99.90;;;;;;5134959;27;20039;-43
2023/11/14 07:51:09;;;;;;;40.53;7.85;;;11.70;99.90;;;;;;5135085;27;20561;-44
2023/11/14 07:53:35;;;;;;;33.40;7.28;;;11.70;99.90;;;;;;5125328;27;20051;-43
2023/11/14 07:56:01;;;;;;;44.17;7.82;;;11.80;99.90;;;;;;5130000;27;20147;-46
2023/11/14 07:58:29;;;;;;;41.08;7.15;;;11.80;99.90;;;;;;5135047;27;20055;-45
2023/11/14 08:00:56;;;;;;;43.67;7.95;;;11.80;99.90;;;;;;5134898;27;20035;-43
2023/11/14 08:03:25;;;;;;;43.05;8.02;;;11.80;99.90;;;;;;5134572;27;20122;-43
2023/11/14 08:05:51;;;;;;;35.05;6.30;;;11.80;99.90;;;;;;5134565;27;20499;-43
2023/11/14 08:08:16;;;;;;;36.88;7.03;;;11.80;99.90;;;;;;5134530;27;20031;-43
2023/11/14 08:10:42;;;;;;;45.03;7.55;;;11.90;99.90;;;;;;5134648;27;20031;-43
2023/11/14 08:13:08;;;;;;;39.50;7.38;;;11.80;99.90;;;;;;5134551;27;20165;-48
2023/11/14 08:15:34;;;;;;;42.88;7.32;;;11.80;99.90;;;;;;5134475;27;20394;-47
2023/11/14 08:17:59;;;;;;;34.70;6.78;;;11.80;99.90;;;;;;5134534;27;20038;-46
2023/11/14 08:20:28;;;;;;;37.60;6.72;;;11.90;99.90;;;;;;5119899;27;20174;-47
2023/11/14 08:22:54;;;;;;;32.97;7.13;;;11.90;99.90;;;;;;5134682;27;20565;-48
2023/11/14 08:25:20;;;;;;;34.90;6.85;;;12.00;99.90;;;;;;5134006;27;20118;-48
2023/11/14 08:27:47;;;;;;;37.97;8.60;;;11.90;99.90;;;;;;5134327;27;20409;-47
2023/11/14 08:30:13;;;;;;;33.75;7.50;;;11.90;99.90;;;;;;5133644;27;20032;-47
2023/11/14 08:32:47;;;;;;;38.70;6.75;;;12.00;99.90;;;;;;5134131;27;20557;-45
2023/11/14 08:35:13;;;;;;;42.95;7.25;;;12.10;99.90;;;;;;5134042;27;20043;-46
2023/11/14 08:37:39;;;;;;;31.90;7.13;;;12.20;99.90;;;;;;5121664;27;20054;-48
2023/11/14 08:40:06;;;;;;;38.05;7.20;;;12.30;99.90;;;;;;5134255;27;20106;-48
2023/11/14 08:42:31;;;;;;;40.85;8.13;;;12.40;99.90;;;;;;5119706;27;20047;-46
2023/11/14 08:44:57;;;;;;;32.65;5.93;;;12.40;99.90;;;;;;5133962;27;20043;-48
2023/11/14 08:47:23;;;;;;;34.15;7.53;;;12.40;99.90;;;;;;5133824;27;20492;-44
2023/11/14 08:49:49;;;;;;;29.67;6.47;;;12.40;99.90;;;;;;5133645;27;20031;-48
2023/11/14 08:52:15;;;;;;;35.92;6.47;;;12.50;99.90;;;;;;5133743;27;20038;-48
2023/11/14 08:54:41;;;;;;;40.67;7.43;;;12.40;99.90;;;;;;5119280;27;20035;-46
2023/11/14 08:57:07;;;;;;;43.45;7.22;;;12.40;99.90;;;;;;5133815;27;20070;-46
2023/11/14 08:59:33;;;;;;;37.72;7.28;;;12.50;99.90;;;;;;5133601;27;20046;-44
2023/11/14 09:01:59;;;;;;;36.55;7.25;;;12.50;99.90;;;;;;5133691;27;20037;-47
2023/11/14 09:04:24;;;;;;;39.05;6.97;;;12.60;99.90;;;;;;5115086;27;20039;-44
2023/11/14 09:06:50;;;;;;;47.88;8.15;;;12.60;99.90;;;;;;5133983;27;20046;-43
2023/11/14 09:09:18;;;;;;;38.67;6.15;;;12.60;99.90;;;;;;5133805;27;20066;-45
2023/11/14 09:11:44;;;;;;;34.20;7.53;;;12.60;99.90;;;;;;5133518;27;20039;-46
2023/11/14 09:14:09;;;;;;;37.70;8.18;;;12.50;99.90;;;;;;5133798;27;20031;-44
2023/11/14 09:16:35;;;;;;;41.33;8.20;;;12.50;99.90;;;;;;5114897;27;20397;-46
2023/11/14 09:19:01;;;;;;;37.53;7.03;;;12.40;99.90;;;;;;5133171;27;20039;-45
2023/11/14 09:21:27;;;;;;;29.42;7.43;;;12.40;99.90;;;;;;5133247;27;20035;-49
2023/11/14 09:23:54;;;;;;;28.60;6.10;;;12.20;99.90;;;;;;5133313;27;20370;-47
2023/11/14 09:26:21;;;;;;;32.28;6.68;;;12.20;99.90;;;;;;5133420;27;20039;-43
2023/11/14 09:28:47;;;;;;;35.50;6.35;;;12.20;99.90;;;;;;5114852;27;20035;-44
2023/11/14 09:31:12;;;;;;;33.50;6.38;;;12.20;99.90;;;;;;5133062;27;20038;-45
2023/11/14 09:33:38;;;;;;;31.85;5.80;;;12.10;99.90;;;;;;5133126;27;20031;-43
2023/11/14 09:36:06;;;;;;;27.75;6.07;;;12.20;99.90;;;;;;5133033;27;20042;-46
2023/11/14 09:38:32;;;;;;;30.52;5.25;;;12.20;99.90;;;;;;5132887;27;20503;-44
2023/11/14 09:41:02;;;;;;;36.42;7.13;;;12.30;99.90;;;;;;5132694;27;20095;-44
2023/11/14 09:43:33;;;;;;;29.65;6.13;;;12.30;99.90;;;;;;5132465;27;20061;-43
2023/11/14 09:45:59;;;;;;;37.85;5.57;;;12.40;99.90;;;;;;5132888;27;20043;-45
2023/11/14 09:48:25;;;;;;;36.55;6.93;;;12.40;99.90;;;;;;5133097;27;20042;-45
2023/11/14 09:50:53;;;;;;;29.83;6.30;;;12.60;99.90;;;;;;5132894;27;20046;-44
2023/11/14 09:53:23;;;;;;;35.70;6.83;;;12.60;99.90;;;;;;5125744;27;20039;-43
2023/11/14 09:55:53;;;;;;;28.20;5.20;;;12.60;99.90;;;;;;5126259;27;20039;-43
2023/11/14 09:58:20;;;;;;;37.92;7.13;;;12.80;99.90;;;;;;5132650;27;20034;-44
2023/11/14 10:00:47;;;;;;;32.28;6.63;;;12.80;99.90;;;;;;5132889;27;20039;-43
2023/11/14 10:03:13;;;;;;;33.65;6.15;;;12.90;99.90;;;;;;5132504;27;20042;-43
2023/11/14 10:05:39;;;;;;;36.28;6.95;;;12.80;99.90;;;;;;5132839;28;20399;-43
2023/11/14 10:08:06;;;;;;;34.42;6.85;;;12.90;99.90;;;;;;5132765;28;20630;-45
2023/11/14 10:10:32;;;;;;;40.35;5.78;;;12.90;99.90;;;;;;5132687;28;20424;-45
2023/11/14 10:12:57;;;;;;;41.67;7.68;;;13.10;99.90;;;;;;5113936;28;20092;-44
2023/11/14 10:15:32;;;;;;;39.72;7.53;;;13.30;99.90;;;;;;5132583;28;20039;-49
2023/11/14 10:17:59;;;;;;;38.90;6.90;;;13.30;99.90;;;;;;5132397;28;20079;-46
2023/11/14 10:20:36;;;;;;;49.22;7.32;;;13.30;99.90;;;;;;5132352;28;20031;-46
2023/11/14 10:23:04;;;;;;;40.05;6.75;;;13.30;99.90;;;;;;5131907;28;20408;-48
2023/11/14 10:25:32;;;;;;;39.72;8.07;;;13.20;99.90;;;;;;5132242;28;20032;-45
2023/11/14 10:28:07;;;;;;;33.63;7.38;;;13.10;99.90;;;;;;5132589;28;20047;-44
2023/11/14 10:30:41;;;;;;;27.55;6.20;;;13.20;99.90;;;;;;5132258;28;20027;-48
2023/11/14 10:33:08;;;;;;;40.58;7.70;;;13.30;99.90;;;;;;5132612;28;20035;-46
2023/11/14 10:35:34;;;;;;;37.58;6.88;;;13.40;99.90;;;;;;5114147;28;20042;-43
2023/11/14 10:38:20;;;;;;;38.15;6.93;;;13.50;99.90;;;;;;5132355;28;20393;-47
2023/11/14 10:40:48;;;;;;;36.65;6.82;;;13.60;99.90;;;;;;5132272;28;20045;-44
2023/11/14 10:43:31;;;;;;;33.15;6.03;;;13.60;99.90;;;;;;5132341;28;20082;-45
2023/11/14 10:46:06;;;;;;;37.00;6.93;;;13.70;99.90;;;;;;5132181;28;20051;-45
2023/11/14 10:48:32;;;;;;;36.70;6.05;;;13.80;99.90;;;;;;5132038;28;20032;-43
2023/11/14 10:50:58;;;;;;;31.15;6.50;;;13.80;99.90;;;;;;5132014;28;20092;-46
2023/11/14 10:53:25;;;;;;;33.72;6.97;;;13.80;99.90;;;;;;5125920;27;20035;-44
2023/11/14 10:55:51;;;;;;;41.10;6.63;;;13.70;99.90;;;;;;5129644;27;20389;-44
2023/11/14 10:58:18;;;;;;;38.22;6.30;;;13.70;99.90;;;;;;5135980;27;20027;-43
2023/11/14 11:00:44;;;;;;;26.90;5.97;;;13.60;99.90;;;;;;5135855;27;20071;-44
2023/11/14 11:03:10;;;;;;;28.92;5.38;;;13.60;99.90;;;;;;5135920;27;20104;-43
2023/11/14 11:05:37;;;;;;;38.08;6.80;;;13.60;99.90;;;;;;5136008;27;20039;-47
2023/11/14 11:08:04;;;;;;;36.80;7.45;;;13.60;99.90;;;;;;5135613;27;20047;-45
2023/11/14 11:10:32;;;;;;;30.48;5.97;;;13.60;99.90;;;;;;5135884;27;20038;-44
2023/11/14 11:13:06;;;;;;;35.92;5.93;;;13.50;99.90;;;;;;5135682;27;20114;-45
2023/11/14 11:15:44;;;;;;;34.30;6.97;;;13.50;99.90;;;;;;5135609;27;20035;-48
2023/11/14 11:18:11;;;;;;;33.55;7.15;;;13.50;99.90;;;;;;5135408;27;20552;-44
2023/11/14 11:20:36;;;;;;;32.47;5.90;;;13.50;99.90;;;;;;5135756;27;20397;-48
2023/11/14 11:23:09;;;;;;;36.60;6.72;;;13.50;99.90;;;;;;5135399;27;20035;-48
2023/11/14 11:25:46;;;;;;;32.33;6.93;;;13.50;99.90;;;;;;5135390;27;20031;-47
2023/11/14 11:28:27;;;;;;;36.05;7.10;;;13.60;99.90;;;;;;5135664;27;20128;-44
2023/11/14 11:31:23;;;;;;;36.25;7.05;;;13.70;99.90;;;;;;5135568;27;20031;-44
2023/11/14 11:33:49;;;;;;;32.28;6.45;;;13.90;99.90;;;;;;5126902;27;20117;-45
2023/11/14 11:36:20;;;;;;;31.85;5.82;;;14.00;99.90;;;;;;5135216;27;20114;-44
2023/11/14 11:39:16;;;;;;;32.72;6.78;;;14.10;99.90;;;;;;5135362;27;20038;-44
2023/11/14 11:41:55;;;;;;;23.65;4.97;;;14.00;99.90;;;;;;5114001;27;20480;-48
2023/11/14 11:44:35;;;;;;;37.65;7.80;;;14.10;99.90;;;;;;5121714;27;20508;-42
2023/11/14 11:47:01;;;;;;;34.78;7.25;;;14.00;99.90;;;;;;5135205;27;20092;-43
2023/11/14 11:49:27;;;;;;;42.35;6.53;;;13.90;99.90;;;;;;5135310;27;20434;-43
2023/11/14 11:52:10;;;;;;;33.45;6.18;;;13.90;99.90;;;;;;5135049;27;20473;-45
2023/11/14 11:54:36;;;;;;;33.20;5.70;;;14.00;99.90;;;;;;5120434;27;20050;-43
2023/11/14 11:57:06;;;;;;;36.75;6.35;;;13.90;99.90;;;;;;5134937;27;20046;-45
2023/11/14 11:59:52;;;;;;;33.42;5.63;;;13.90;99.90;;;;;;5116750;27;20055;-43
2023/11/14 12:02:19;;;;;;;38.40;7.47;;;14.00;99.90;;;;;;5078347;27;20051;-44
2023/11/14 12:04:51;;;;;;;33.17;7.15;;;13.90;99.90;;;;;;5154650;27;20541;-46
2023/11/14 12:07:16;;;;;;;30.70;6.63;;;13.80;99.90;;;;;;5127833;27;20039;-45
2023/11/14 12:09:42;;;;;;;30.98;6.40;;;13.70;99.90;;;;;;5155382;27;20057;-45
2023/11/14 12:12:08;;;;;;;40.05;6.65;;;13.60;99.90;;;;;;5155410;27;20058;-44
2023/11/14 12:14:34;;;;;;;41.35;7.03;;;13.50;99.90;;;;;;5144594;27;20448;-44
2023/11/14 12:17:03;;;;;;;42.80;7.03;;;13.50;99.90;;;;;;5151777;27;20041;-47
2023/11/14 12:19:29;;;;;;;;;;;13.50;99.90;;;;;;5137272;27;20065;-49
2023/11/14 12:21:56;;;;;;;37.65;6.85;;;13.60;99.90;;;;;;5142759;27;19915;-45
2023/11/14 12:24:22;;;;;;;31.33;6.25;;;13.60;99.90;;;;;;5154956;27;20035;-47
2023/11/14 12:26:49;;;;;;;35.78;6.43;;;13.80;99.90;;;;;;5155133;27;20043;-45
2023/11/14 12:29:15;;;;;;;33.08;6.45;;;13.90;99.90;;;;;;5136563;27;20037;-48
2023/11/14 12:31:50;;;;;;;30.85;6.60;;;14.00;99.90;;;;;;5155350;27;20039;-46
2023/11/14 12:34:29;;;;;;;38.67;6.47;;;14.00;99.90;;;;;;5154809;27;20094;-46
2023/11/14 12:37:08;;;;;;;40.88;6.63;;;14.00;99.90;;;;;;5154861;27;20049;-46